Ampeg V4.com

forum

You are not logged in.

Ampeg Heads

Topic Replies Views Last post
2 260 2020-04-14 10:26:44 by rowell
0 132 2020-03-23 13:35:27 by rowell
3 1747 2020-03-11 07:52:28 by rowell
VT22 reverb by nastynotch347
1 1791 2018-03-24 09:47:37 by Tony
1 1415 2016-04-21 00:37:14 by GreaserMatt
15 8573 2016-04-20 23:52:07 by GreaserMatt
0 1243 2015-10-02 10:08:35 by jay42
V2 Faceplate High Res PDF??? by Holy Schnikes
1 2599 2015-08-28 08:53:28 by Steelyman
1 2221 2015-08-07 13:52:24 by jay42
3 inputs on V4B ? by patmac
1 1542 2015-08-07 13:47:23 by jay42
Biasing a '70 SVT by msaudio
0 1271 2015-06-11 13:35:32 by msaudio
Need amp tech for V4 by kestrou
0 1529 2015-02-03 06:59:56 by kestrou
1 1855 2014-10-06 02:52:12 by waltdogg
vt22 footswitch question by nocoastjames
1 1698 2014-10-01 07:32:59 by nocoastjames
1 2615 2014-09-09 19:29:27 by reb
Spam posting by ROBO
2 1995 2014-09-02 13:23:30 by waltdogg
Magnavox V4 by jarrym
0 1863 2014-06-14 14:10:05 by jarrym
1 2069 2014-06-12 20:46:32 by ROBO
0 1602 2014-06-12 00:48:40 by Jon K
3 2809 2014-06-03 00:46:47 by meexiko
New guy with a '70 VT-22 by nastynotch347
6 3556 2014-05-22 19:31:29 by hangman
V2 new PCB by Jon K
7 4655 2014-05-20 14:19:54 by Steelyman
1 2101 2014-05-11 21:38:35 by rowfour
0 1517 2014-04-22 12:27:07 by prb2
1 1807 2014-04-09 01:40:30 by hangman
2 2294 2014-04-07 21:00:50 by doug_olitsky
Ampeg V-4 Whistling? by waltdogg
5 3414 2014-03-15 10:34:45 by waltdogg
4 3158 2014-03-13 14:46:03 by waltdogg
Ampeg V4 Plate Voltage by ca_mccar
1 2270 2014-02-15 06:56:05 by teles
7 3972 2014-02-01 14:46:52 by jackobfranklin

Board footer

Powered by PunBB
© Copyright 2002–2005 Rickard Andersson